createdAt,value
2023-02-20T00:04:44.451Z,100826.86
2023-02-20T00:09:31.765Z,100826.82
2023-02-20T00:14:20.909Z,100823.84
2023-02-20T00:19:24.112Z,100811.72
2023-02-20T00:24:16.579Z,100807.14
2023-02-20T00:29:15.165Z,100792.14
2023-02-20T00:34:03.425Z,100785.66
2023-02-20T00:38:49.486Z,100780.93
2023-02-20T00:43:41.598Z,100777.91
2023-02-20T00:48:25.641Z,100777.36
2023-02-20T00:53:13.550Z,100779.2
2023-02-20T00:57:56.614Z,100776.9
2023-02-20T01:03:31.506Z,100769.51
2023-02-20T01:08:29.069Z,100769.73
2023-02-20T01:13:45.052Z,100772.36
2023-02-20T01:18:53.645Z,100767.6
2023-02-20T01:23:45.620Z,100763.58
2023-02-20T01:28:28.594Z,100759.23
2023-02-20T01:33:11.592Z,100746.69
2023-02-20T01:37:54.561Z,100740.02
2023-02-20T01:42:37.595Z,100730.36
2023-02-20T01:47:20.557Z,100720.95
2023-02-20T01:52:03.596Z,100714.56
2023-02-20T01:56:46.645Z,100710.05
2023-02-20T02:01:29.657Z,100709.01
2023-02-20T02:06:13.517Z,100700.69
2023-02-20T02:10:56.874Z,100698.64
2023-02-20T02:15:39.862Z,100693.94
2023-02-20T02:20:22.853Z,100677.67
2023-02-20T02:25:05.919Z,100677.41
2023-02-20T02:29:49.003Z,100668.67
2023-02-20T02:34:32.003Z,100670.33
2023-02-20T02:39:14.988Z,100669.85
2023-02-20T02:43:57.964Z,100648.95
2023-02-20T02:48:40.998Z,100645.2
2023-02-20T02:53:23.928Z,100652.92
2023-02-20T02:58:06.909Z,100649.89
2023-02-20T03:02:49.975Z,100646.25
2023-02-20T03:07:33.276Z,100634.64
2023-02-20T03:12:16.224Z,100629.95
2023-02-20T03:16:59.188Z,100624.02
2023-02-20T03:21:42.136Z,100628
2023-02-20T03:26:25.130Z,100622.06
2023-02-20T03:31:08.376Z,100626.44
2023-02-20T03:35:51.426Z,100639.25
2023-02-20T03:40:36.929Z,100635.36
2023-02-20T03:45:19.892Z,100626.78
2023-02-20T03:50:03.649Z,100619.7
2023-02-20T03:54:46.645Z,100616.13
2023-02-20T03:59:29.650Z,100617.77
2023-02-20T04:04:12.679Z,100607.53
2023-02-20T04:08:55.615Z,100600.42
2023-02-20T04:13:38.589Z,100576.86
2023-02-20T04:18:21.601Z,100562.11
2023-02-20T04:23:04.639Z,100572.2
2023-02-20T04:27:47.652Z,100578.9
2023-02-20T04:32:30.758Z,100580.72
2023-02-20T04:37:13.726Z,100579.88
2023-02-20T04:41:56.702Z,100575.85
2023-02-20T04:46:39.708Z,100569.66
2023-02-20T04:51:22.680Z,100553.21
2023-02-20T04:56:05.662Z,100551.05
2023-02-20T05:00:48.649Z,100553.34
2023-02-20T05:05:31.675Z,100537.3
2023-02-20T05:10:14.698Z,100536.7
2023-02-20T05:14:57.701Z,100537.6
2023-02-20T05:19:40.667Z,100541.47
2023-02-20T05:24:23.648Z,100538.41
2023-02-20T05:29:06.607Z,100522.78
2023-02-20T05:33:49.576Z,100521.22
2023-02-20T05:38:32.659Z,100528.25
2023-02-20T05:43:15.728Z,100522.06
2023-02-20T05:47:58.732Z,100520.73
2023-02-20T05:52:41.676Z,100521.05
2023-02-20T05:57:24.972Z,100514
2023-02-20T06:02:07.990Z,100516.63
2023-02-20T06:06:53.545Z,100496.35
2023-02-20T06:11:36.520Z,100502.44
2023-02-20T06:16:19.599Z,100499.9
2023-02-20T06:21:02.628Z,100498.91
2023-02-20T06:25:45.584Z,100496.05
2023-02-20T06:30:30.489Z,100500.81
2023-02-20T06:35:13.737Z,100495.69
2023-02-20T06:39:56.748Z,100482.31
2023-02-20T06:45:01.291Z,100476.16
2023-02-20T06:49:44.293Z,100477.39
2023-02-20T06:59:55.523Z,100462.55
2023-02-20T07:04:38.496Z,100469.14
2023-02-20T07:09:21.510Z,100459.67
2023-02-20T07:14:04.625Z,100452.3
2023-02-20T07:18:47.560Z,100442.33
2023-02-20T07:23:30.530Z,100438.97
2023-02-20T07:28:13.514Z,100433.88
2023-02-20T07:33:28.051Z,100412.89
2023-02-20T07:38:11.234Z,100395.05
2023-02-20T07:42:54.202Z,100384.45
2023-02-20T07:47:37.275Z,100369.41
2023-02-20T07:52:20.203Z,100363.07
2023-02-20T07:57:03.199Z,100353.58
2023-02-20T08:01:46.353Z,100360.92
2023-02-20T08:12:17.446Z,100350.81
2023-02-20T08:17:00.433Z,100339.98
2023-02-20T08:21:43.432Z,100335.63
2023-02-20T08:26:26.421Z,100328.3
2023-02-20T08:31:11.929Z,100326.28
2023-02-20T08:36:08.358Z,100328.67
2023-02-20T08:40:51.369Z,100311.25
2023-02-20T08:51:16.391Z,100291.84
2023-02-20T08:55:59.430Z,100271.28
2023-02-20T09:00:42.555Z,100263.87
2023-02-20T09:05:25.739Z,100249.61
2023-02-20T09:10:09.007Z,100257.61
2023-02-20T09:14:52.027Z,100251.42
2023-02-20T09:19:35.122Z,100247.55
2023-02-20T09:24:18.171Z,100237.31
2023-02-20T09:29:01.173Z,100226.66
2023-02-20T09:33:44.134Z,100200.77
2023-02-20T09:38:35.904Z,100206.54
2023-02-20T09:43:40.309Z,100197.98
2023-02-20T09:48:23.358Z,100183.71
2023-02-20T09:53:06.367Z,100184.81
2023-02-20T09:57:49.488Z,100185.98
2023-02-20T10:02:32.785Z,100190.03
2023-02-20T10:07:15.956Z,100167.11
2023-02-20T10:11:59.042Z,100129.3
2023-02-20T10:16:42.230Z,100109.73
2023-02-20T10:21:28.654Z,100111.13
2023-02-20T10:26:13.579Z,100094.57
2023-02-20T10:30:57.639Z,100071.62
2023-02-20T10:35:40.799Z,100049.41
2023-02-20T10:40:23.841Z,100024.48
2023-02-20T10:45:06.912Z,100018.25
2023-02-20T10:49:49.925Z,100005.23
2023-02-20T10:54:32.968Z,99985.83
2023-02-20T10:59:16.022Z,99993.3
2023-02-20T11:03:59.128Z,99997.86
2023-02-20T11:25:19.106Z,99958.16
2023-02-20T11:30:02.258Z,99945.5
2023-02-20T11:34:45.290Z,99940.32
2023-02-20T11:39:49.236Z,99932.66
2023-02-20T11:44:46.696Z,99910.56
2023-02-20T11:49:29.692Z,99903.63
2023-02-20T11:54:12.957Z,99891.91
2023-02-20T11:58:55.967Z,99872.88
2023-02-20T12:03:39.544Z,99845.49
2023-02-20T12:08:22.624Z,99840.09
2023-02-20T12:13:27.235Z,99820.58
2023-02-20T12:18:10.229Z,99822.08
2023-02-20T12:22:53.279Z,99805.13
2023-02-20T12:33:22.209Z,99765.56
2023-02-20T12:38:05.200Z,99737.55
2023-02-20T12:42:48.208Z,99731.2
2023-02-20T12:47:31.382Z,99721.94
2023-02-20T12:52:14.509Z,99707.88
2023-02-20T12:56:58.606Z,99721.23
2023-02-20T13:01:42.067Z,99686.73
2023-02-20T13:06:25.627Z,99678.35
2023-02-20T13:27:21.477Z,99644.52
2023-02-20T13:37:46.497Z,99618.17
2023-02-20T13:42:35.401Z,99621.65
2023-02-20T13:47:28.693Z,99612.42
2023-02-20T13:52:11.780Z,99611.39
2023-02-20T13:56:55.943Z,99619.42
2023-02-20T14:01:39.205Z,99622.77
2023-02-20T14:12:03.173Z,99615.32
2023-02-20T14:16:48.019Z,99608.06
2023-02-20T14:21:31.310Z,99605.88
2023-02-20T14:26:15.166Z,99597.45
2023-02-20T14:30:58.502Z,99584
2023-02-20T14:35:41.554Z,99576.77
2023-02-20T14:40:24.610Z,99580.77
2023-02-20T14:45:10.180Z,99576.7
2023-02-20T14:56:00.353Z,99576.51
2023-02-20T15:17:33.165Z,99597.67
2023-02-20T15:22:16.382Z,99611.21
2023-02-20T15:26:59.550Z,99613.23
2023-02-20T15:37:48.958Z,99622.69
2023-02-20T15:54:05.560Z,99615.84
2023-02-20T15:58:48.852Z,99625.44
2023-02-20T16:03:50.888Z,99643.91
2023-02-20T16:08:35.802Z,99646.91
2023-02-20T16:13:19.934Z,99649.59
2023-02-20T16:18:03.160Z,99655.09
2023-02-20T16:22:46.341Z,99658.56
2023-02-20T16:27:29.612Z,99656.63
2023-02-20T16:32:13.848Z,99672.09
2023-02-20T16:36:57.372Z,99679.81
2023-02-20T16:41:40.650Z,99685.77
2023-02-20T16:46:39.386Z,99691.27
2023-02-20T16:51:22.732Z,99691.56
2023-02-20T16:56:05.896Z,99694.59
2023-02-20T17:00:58.991Z,99711.96
2023-02-20T17:05:42.046Z,99713.36
2023-02-20T17:10:25.086Z,99713.48
2023-02-20T17:15:08.159Z,99710.8
2023-02-20T17:19:51.114Z,99715.53
2023-02-20T17:24:34.218Z,99721.97
2023-02-20T17:29:17.373Z,99725.77
2023-02-20T17:34:00.593Z,99733.98
2023-02-20T17:38:43.728Z,99732.94
2023-02-20T17:43:27.122Z,99740.16
2023-02-20T17:48:13.681Z,99746.45
2023-02-20T17:52:56.905Z,99754.62
2023-02-20T17:57:40.025Z,99754.61
2023-02-20T18:02:23.235Z,99761.59
2023-02-20T18:07:06.476Z,99744.27
2023-02-20T18:11:49.606Z,99729.73
2023-02-20T18:16:57.743Z,99721.95
2023-02-20T18:27:10.910Z,99720.48
2023-02-20T18:31:54.566Z,99714.45
2023-02-20T18:36:38.016Z,99718.52
2023-02-20T18:41:21.530Z,99704.64
2023-02-20T18:46:05.416Z,99700.06
2023-02-20T18:50:48.631Z,99697.19
2023-02-20T18:55:31.869Z,99697.8
2023-02-20T19:00:16.011Z,99688.52
2023-02-20T19:04:59.185Z,99685.56
2023-02-20T19:09:42.542Z,99675.28
2023-02-20T19:14:51.800Z,99663.33
2023-02-20T19:19:37.475Z,99659.79
2023-02-20T19:24:20.857Z,99649.96
2023-02-20T19:29:04.022Z,99644.41
2023-02-20T19:33:47.473Z,99650.44
2023-02-20T19:44:26.349Z,99652.42
2023-02-20T19:49:09.644Z,99667.48
2023-02-20T19:59:39.140Z,99657.52
2023-02-20T20:04:22.363Z,99656.22
2023-02-20T20:09:33.703Z,99667.71
2023-02-20T20:14:20.205Z,99672.18
2023-02-20T20:19:03.328Z,99656.19
2023-02-20T20:24:17.403Z,99664.27
2023-02-20T20:29:03.049Z,99654.88
2023-02-20T20:33:45.975Z,99649.38
2023-02-20T20:38:29.336Z,99640.41
2023-02-20T20:43:12.335Z,99634.59
2023-02-20T20:47:55.346Z,99655
2023-02-20T20:52:38.344Z,99644.59
2023-02-20T20:57:21.310Z,99642.82
2023-02-20T21:02:04.327Z,99646.63
2023-02-20T21:06:47.317Z,99636.48
2023-02-20T21:11:30.839Z,99634.33
2023-02-20T21:16:17.335Z,99651.16
2023-02-20T21:21:00.374Z,99642.23
2023-02-20T21:25:43.336Z,99638.83
2023-02-20T21:30:35.687Z,99632.29
2023-02-20T21:35:18.827Z,99634.74
2023-02-20T21:40:01.825Z,99637.91
2023-02-20T21:44:45.177Z,99627.39
2023-02-20T21:49:28.148Z,99633.86
2023-02-20T21:54:11.111Z,99629.61
2023-02-20T21:58:54.313Z,99632.42
2023-02-20T22:03:37.414Z,99634.38
2023-02-20T22:08:20.477Z,99624.53
2023-02-20T22:13:03.489Z,99621.28
2023-02-20T22:18:01.306Z,99616.12
2023-02-20T22:22:49.948Z,99619.02
2023-02-20T22:27:33.234Z,99620.93
2023-02-20T22:32:16.775Z,99606.58
2023-02-20T22:37:00.136Z,99609.17
2023-02-20T22:41:54.664Z,99607.36
2023-02-20T22:46:46.637Z,99604.07
2023-02-20T22:51:51.211Z,99602.96
2023-02-20T22:56:36.506Z,99603.86
2023-02-20T23:01:20.534Z,99613.35
2023-02-20T23:06:18.941Z,99605.09
2023-02-20T23:11:02.725Z,99608.16
2023-02-20T23:15:45.710Z,99604.48
2023-02-20T23:20:28.671Z,99593.66
2023-02-20T23:25:11.634Z,99599.38
2023-02-20T23:29:54.826Z,99599.56
2023-02-20T23:34:37.786Z,99583.42
2023-02-20T23:39:20.829Z,99578.59
2023-02-20T23:44:03.820Z,99582.69
2023-02-20T23:48:46.749Z,99588.56
2023-02-20T23:53:29.737Z,99593.02
2023-02-20T23:58:12.900Z,99578
